Time;durP1;ratioP1;P1;durP2;ratioP2;P2;SDS_P1;SDS_P2;PMS_P1;PMS_P2;Temp;Humidity;BMP_temperature;BMP_pressure;BME280_temperature;BME280_humidity;BME280_pressure;Samples;Min_cycle;Max_cycle;Signal;HPM_P1;HPM_P2
2022/06/19 00:01:07;;;;;;;4.50;1.60;;;;;;;20.16;54.30;100077.36;105895;1274;24218;-53
2022/06/19 00:03:43;;;;;;;7.00;1.90;;;;;;;20.06;54.53;100074.98;105898;1274;22564;-54
2022/06/19 00:06:16;;;;;;;9.60;1.80;;;;;;;19.98;54.65;100073.78;105850;1274;22567;-54
2022/06/19 00:08:48;;;;;;;9.30;1.70;;;;;;;19.91;54.96;100076.08;105884;1274;22531;-52
2022/06/19 00:11:22;;;;;;;7.40;1.80;;;;;;;19.84;54.97;100069.79;105590;1274;22547;-54
2022/06/19 00:13:53;;;;;;;7.90;1.70;;;;;;;19.80;55.03;100065.95;105673;1274;25251;-54
2022/06/19 00:16:25;;;;;;;8.00;1.20;;;;;;;19.79;55.35;100066.59;105679;1274;22557;-51
2022/06/19 00:18:57;;;;;;;7.50;1.80;;;;;;;19.78;55.24;100064.31;105857;1273;22721;-53
2022/06/19 00:21:31;;;;;;;7.30;1.40;;;;;;;19.77;55.35;100059.12;105658;1274;22529;-50
2022/06/19 00:24:03;;;;;;;5.90;1.60;;;;;;;19.75;55.63;100060.23;105906;1274;22533;-56
2022/06/19 00:26:34;;;;;;;11.10;1.60;;;;;;;19.72;55.85;100057.63;105940;1274;25236;-53
2022/06/19 00:29:06;;;;;;;7.40;1.30;;;;;;;19.68;55.83;100056.77;105830;1274;24293;-53
2022/06/19 00:31:38;;;;;;;6.10;1.40;;;;;;;19.68;55.93;100054.89;105607;1273;22804;-51
2022/06/19 00:34:09;;;;;;;7.10;1.50;;;;;;;19.64;56.24;100055.63;105612;1273;22554;-54
2022/06/19 00:36:43;;;;;;;4.90;1.50;;;;;;;19.59;56.48;100051.56;106004;1272;22636;-57
2022/06/19 00:39:15;;;;;;;7.20;1.50;;;;;;;19.50;56.84;100050.61;105647;1274;22583;-53
2022/06/19 00:41:49;;;;;;;6.40;1.80;;;;;;;19.44;56.97;100046.41;105662;1273;24279;-54
2022/06/19 00:44:21;;;;;;;7.10;1.30;;;;;;;19.40;56.88;100043.42;105725;1273;22537;-54
2022/06/19 00:46:59;;;;;;;6.00;1.30;;;;;;;19.38;57.12;100038.14;105738;1274;24447;-56
2022/06/19 00:49:36;;;;;;;8.00;1.40;;;;;;;19.33;57.57;100037.86;105765;1273;24056;-50
2022/06/19 00:52:12;;;;;;;6.50;1.30;;;;;;;19.29;57.66;100044.05;105710;1273;25461;-53
2022/06/19 00:54:47;;;;;;;7.20;1.60;;;;;;;19.24;57.83;100043.58;105888;1273;23979;-53
2022/06/19 00:57:21;;;;;;;5.00;1.80;;;;;;;19.22;58.03;100040.63;105753;1273;23210;-51
2022/06/19 00:59:59;;;;;;;9.00;1.40;;;;;;;19.20;58.20;100046.64;105943;1273;22575;-52
2022/06/19 01:02:30;;;;;;;8.40;1.60;;;;;;;19.16;58.31;100045.65;106127;1273;22647;-51
2022/06/19 01:05:04;;;;;;;6.80;1.30;;;;;;;19.12;58.48;100048.09;105703;1273;22558;-54
2022/06/19 01:07:37;;;;;;;8.40;1.60;;;;;;;19.08;58.74;100045.08;106064;1273;25356;-51
2022/06/19 01:10:12;;;;;;;6.10;1.20;;;;;;;19.03;58.89;100043.93;105647;1273;24270;-52
2022/06/19 01:12:47;;;;;;;6.50;1.20;;;;;;;18.97;59.06;100045.69;105932;1273;22540;-54
2022/06/19 01:15:22;;;;;;;8.00;1.60;;;;;;;18.97;59.14;100047.35;105759;1273;22557;-52
2022/06/19 01:17:58;;;;;;;5.10;1.50;;;;;;;18.94;59.39;100050.63;105628;1273;22573;-55
2022/06/19 01:20:32;;;;;;;5.90;1.40;;;;;;;18.92;59.43;100051.53;105807;1273;22722;-53
2022/06/19 01:23:12;;;;;;;3.60;1.20;;;;;;;18.90;59.63;100052.13;105771;1273;25423;-55
2022/06/19 01:25:45;;;;;;;7.00;1.60;;;;;;;18.84;59.99;100052.61;105702;1273;22555;-54
2022/06/19 01:31:15;;;;;;;4.90;1.50;;;;;;;18.74;60.51;100048.16;105740;1273;26313;-56
2022/06/19 01:33:49;;;;;;;7.70;1.50;;;;;;;18.68;60.60;100048.86;105563;1273;25321;-54
2022/06/19 01:36:23;;;;;;;8.20;1.80;;;;;;;18.64;60.71;100045.30;107099;1263;89462;-78
2022/06/19 01:38:59;;;;;;;7.70;1.60;;;;;;;18.60;60.86;100042.44;107199;1270;23931;-77
2022/06/19 01:41:33;;;;;;;7.30;1.40;;;;;;;18.58;60.94;100041.19;107403;1269;22518;-77
2022/06/19 01:44:05;;;;;;;5.30;1.50;;;;;;;18.54;61.09;100041.70;107265;1271;22598;-77
2022/06/19 01:46:36;;;;;;;9.50;1.80;;;;;;;18.50;60.88;100036.32;107093;1271;22640;-77
2022/06/19 01:49:08;;;;;;;5.90;1.60;;;;;;;18.52;60.90;100043.85;107093;1271;22551;-78
2022/06/19 01:51:43;;;;;;;6.90;1.40;;;;;;;18.53;60.87;100047.28;107043;1271;22572;-78
2022/06/19 01:54:20;;;;;;;6.10;1.40;;;;;;;18.55;61.10;100043.33;107045;1271;22525;-77
2022/06/19 01:56:55;;;;;;;5.00;1.40;;;;;;;18.56;61.22;100052.05;106842;1271;22470;-78
2022/06/19 01:59:31;;;;;;;7.40;1.50;;;;;;;18.57;61.31;100050.19;107098;1271;22573;-78
2022/06/19 02:02:04;;;;;;;7.50;1.60;;;;;;;18.57;61.87;100053.54;107198;1271;22543;-78
2022/06/19 02:04:36;;;;;;;9.10;1.80;;;;;;;18.51;61.88;100051.27;107045;1271;22466;-78
2022/06/19 02:07:13;;;;;;;8.30;1.80;;;;;;;18.50;61.65;100051.43;107097;1271;25319;-77
2022/06/19 02:09:45;;;;;;;6.30;1.50;;;;;;;18.52;61.72;100046.63;107080;1271;22560;-78
2022/06/19 02:12:16;;;;;;;7.00;1.40;;;;;;;18.52;61.81;100037.77;106982;1271;22576;-78
2022/06/19 02:14:47;;;;;;;6.70;1.60;;;;;;;18.52;62.09;100031.70;107056;1271;22561;-78
2022/06/19 02:17:25;;;;;;;9.50;1.70;;;;;;;18.52;62.17;100029.86;107121;1271;23065;-78
2022/06/19 02:19:57;;;;;;;6.10;1.60;;;;;;;18.52;62.29;100029.86;107193;1271;22563;-78
2022/06/19 02:22:29;;;;;;;11.20;1.90;;;;;;;18.51;62.29;100027.77;107204;1271;22567;-78
2022/06/19 02:25:01;;;;;;;8.60;2.00;;;;;;;18.49;62.47;100031.06;107116;1271;25073;-78
2022/06/19 02:27:36;;;;;;;7.90;1.90;;;;;;;18.48;62.41;100027.57;107125;1271;22731;-78
2022/06/19 02:30:10;;;;;;;7.00;1.80;;;;;;;18.49;62.43;100034.30;107257;1271;24233;-78
2022/06/19 02:32:45;;;;;;;6.80;1.70;;;;;;;18.48;62.74;100034.88;107206;1271;25504;-78
2022/06/19 02:35:20;;;;;;;6.10;1.50;;;;;;;18.45;62.94;100037.27;107190;1270;25914;-78
2022/06/19 02:37:57;;;;;;;9.10;2.00;;;;;;;18.43;63.19;100036.90;106905;1271;22659;-78
2022/06/19 02:40:39;;;;;;;8.90;1.80;;;;;;;18.40;63.17;100029.42;107206;1271;24221;-79
2022/06/19 02:43:18;;;;;;;7.70;1.80;;;;;;;18.38;63.11;100030.38;107218;1271;22706;-78
2022/06/19 02:45:49;;;;;;;4.40;1.70;;;;;;;18.36;63.39;100025.52;106981;1271;22535;-79
2022/06/19 02:48:25;;;;;;;8.70;1.90;;;;;;;18.35;63.59;100023.80;107140;1271;22529;-78
2022/06/19 02:50:57;;;;;;;10.30;1.90;;;;;;;18.31;63.94;100024.89;107162;1271;26516;-78
2022/06/19 02:53:29;;;;;;;8.50;2.10;;;;;;;18.27;63.87;100023.66;107225;1271;26554;-78
2022/06/19 02:56:00;;;;;;;8.10;1.70;;;;;;;18.27;63.82;100019.36;107232;1271;22476;-78
2022/06/19 02:58:32;;;;;;;7.50;1.90;;;;;;;18.27;63.89;100018.65;107098;1271;22589;-78
2022/06/19 03:01:03;;;;;;;7.40;1.90;;;;;;;18.26;63.86;100015.47;107164;1271;22547;-78
2022/06/19 03:03:37;;;;;;;7.00;1.90;;;;;;;18.26;64.25;100012.84;107229;1271;24284;-79
2022/06/19 03:06:09;;;;;;;8.00;1.50;;;;;;;18.26;64.12;100004.16;107101;1270;22517;-78
2022/06/19 03:08:40;;;;;;;9.70;1.90;;;;;;;18.27;64.28;100004.29;107002;1271;22609;-77
2022/06/19 03:11:12;;;;;;;6.70;1.60;;;;;;;18.28;64.36;100005.41;107153;1271;22563;-79
2022/06/19 03:13:46;;;;;;;8.20;2.00;;;;;;;18.28;64.50;100007.11;107120;1271;22607;-78
2022/06/19 03:16:18;;;;;;;8.00;2.00;;;;;;;18.29;64.57;100007.30;107086;1271;22627;-79
2022/06/19 03:18:50;;;;;;;7.20;1.70;;;;;;;18.30;64.84;100004.76;107005;1270;25251;-78
2022/06/19 03:21:21;;;;;;;9.60;2.00;;;;;;;18.32;64.69;100003.10;107130;1271;25627;-78
2022/06/19 03:23:52;;;;;;;9.60;2.20;;;;;;;18.34;64.80;100000.90;107188;1271;22580;-77
2022/06/19 03:26:26;;;;;;;4.60;1.60;;;;;;;18.35;64.93;99997.23;106957;1271;22539;-78
2022/06/19 03:28:57;;;;;;;8.80;1.80;;;;;;;18.35;64.90;99994.33;107246;1271;25315;-79
2022/06/19 03:31:31;;;;;;;6.60;1.90;;;;;;;18.37;64.98;99987.85;107140;1271;25258;-78
2022/06/19 03:34:02;;;;;;;5.90;2.00;;;;;;;18.39;65.22;99984.16;107008;1271;22548;-79
2022/06/19 03:36:34;;;;;;;5.00;1.80;;;;;;;18.41;65.14;99971.23;107223;1271;22598;-76
2022/06/19 03:39:05;;;;;;;8.50;2.20;;;;;;;18.43;65.16;99966.06;107101;1271;25477;-78
2022/06/19 03:41:37;;;;;;;7.30;1.90;;;;;;;18.45;65.22;99958.84;107168;1271;22569;-78
2022/06/19 03:44:09;;;;;;;8.40;2.00;;;;;;;18.46;65.34;99955.04;107165;1271;22597;-78
2022/06/19 03:46:41;;;;;;;13.50;2.40;;;;;;;18.49;65.33;99953.90;107148;1271;22703;-78
2022/06/19 03:49:12;;;;;;;9.00;2.10;;;;;;;18.51;65.39;99954.12;107036;1271;23086;-78
2022/06/19 03:51:43;;;;;;;8.70;2.00;;;;;;;18.54;65.45;99956.73;107106;1271;22555;-78
2022/06/19 03:54:16;;;;;;;6.60;2.20;;;;;;;18.58;65.57;99951.89;106874;1271;25343;-78
2022/06/19 03:56:47;;;;;;;8.40;2.60;;;;;;;18.61;65.55;99958.27;106865;1271;22597;-78
2022/06/19 03:59:19;;;;;;;10.70;2.00;;;;;;;18.63;65.94;99962.66;107215;1271;22560;-78
2022/06/19 04:01:50;;;;;;;11.30;2.80;;;;;;;18.66;66.03;99968.11;107107;1271;22537;-78
2022/06/19 04:04:21;;;;;;;7.30;2.00;;;;;;;18.68;66.06;99964.78;107181;1271;22562;-78
2022/06/19 04:06:53;;;;;;;10.80;2.20;;;;;;;18.72;66.03;99960.29;107138;1271;25350;-78
2022/06/19 04:09:24;;;;;;;12.40;2.90;;;;;;;18.76;65.95;99953.98;107085;1271;22547;-77
2022/06/19 04:11:57;;;;;;;7.60;2.30;;;;;;;18.81;66.27;99950.25;107089;1271;22525;-78
2022/06/19 04:14:29;;;;;;;10.10;2.10;;;;;;;18.86;66.26;99946.55;107187;1271;24905;-78
2022/06/19 04:17:01;;;;;;;7.90;1.90;;;;;;;18.90;66.26;99941.27;107113;1271;24251;-78
2022/06/19 04:19:32;;;;;;;8.80;2.10;;;;;;;18.95;66.24;99941.05;107179;1271;22999;-78
2022/06/19 04:22:04;;;;;;;9.20;2.30;;;;;;;19.00;66.37;99930.68;107165;1271;22525;-77
2022/06/19 04:24:35;;;;;;;5.60;2.00;;;;;;;19.05;66.40;99924.86;107065;1271;22489;-79
2022/06/19 04:27:09;;;;;;;8.80;2.00;;;;;;;19.09;66.62;99920.66;107119;1271;22545;-79
2022/06/19 04:29:41;;;;;;;11.00;2.50;;;;;;;19.14;66.46;99920.20;107252;1271;22525;-78
2022/06/19 04:32:13;;;;;;;8.70;2.00;;;;;;;19.21;66.51;99913.61;107176;1271;22470;-79
2022/06/19 04:34:44;;;;;;;6.40;1.80;;;;;;;19.28;66.49;99914.49;107107;1271;26571;-78
2022/06/19 04:37:15;;;;;;;7.50;1.70;;;;;;;19.35;66.66;99913.70;107115;1271;24234;-78
2022/06/19 04:39:47;;;;;;;9.10;2.00;;;;;;;19.41;66.52;99922.84;106854;1270;22530;-78
2022/06/19 04:42:18;;;;;;;8.20;1.70;;;;;;;19.49;66.63;99928.17;106925;1271;23184;-78
2022/06/19 04:44:50;;;;;;;4.70;1.50;;;;;;;19.57;66.55;99934.23;106970;1271;24316;-78
2022/06/19 04:47:21;;;;;;;9.20;1.90;;;;;;;19.65;66.50;99929.30;106970;1271;22624;-78
2022/06/19 04:49:52;;;;;;;5.60;1.60;;;;;;;19.74;66.59;99928.16;107078;1270;22643;-79
2022/06/19 04:52:25;;;;;;;5.90;1.50;;;;;;;19.85;66.54;99923.28;107014;1271;23425;-78
2022/06/19 04:54:56;;;;;;;4.80;1.40;;;;;;;19.96;66.66;99919.61;107283;1271;22653;-79
2022/06/19 04:57:27;;;;;;;7.50;1.70;;;;;;;20.07;66.60;99915.95;107138;1271;23330;-78
2022/06/19 04:59:58;;;;;;;8.60;1.80;;;;;;;20.19;66.43;99918.90;106956;1271;24209;-79
2022/06/19 05:02:29;;;;;;;8.40;1.60;;;;;;;20.31;66.29;99922.68;107100;1270;24474;-79
2022/06/19 05:05:01;;;;;;;6.40;1.20;;;;;;;20.43;66.19;99926.90;107156;1271;22464;-79
2022/06/19 05:07:33;;;;;;;5.20;1.60;;;;;;;20.54;66.14;99928.77;106984;1271;22601;-78
2022/06/19 05:10:04;;;;;;;4.70;1.30;;;;;;;20.66;65.91;99923.66;106691;1271;25818;-79
2022/06/19 05:12:37;;;;;;;8.30;1.60;;;;;;;20.78;65.54;99923.68;106909;1271;22576;-78
2022/06/19 05:15:10;;;;;;;5.40;1.50;;;;;;;20.91;65.34;99926.48;107185;1271;25469;-78
2022/06/19 05:17:43;;;;;;;4.50;1.10;;;;;;;21.01;64.82;99924.29;107203;1270;22628;-78
2022/06/19 05:20:16;;;;;;;8.10;1.20;;;;;;;21.12;64.66;99925.35;107118;1271;22535;-78
2022/06/19 05:22:48;;;;;;;5.60;1.40;;;;;;;21.25;64.45;99918.86;107328;1270;22653;-78
2022/06/19 05:25:20;;;;;;;3.50;1.10;;;;;;;21.37;64.09;99919.13;107125;1271;22612;-78
2022/06/19 05:27:52;;;;;;;7.00;1.20;;;;;;;21.48;63.82;99916.71;106953;1271;22531;-78
2022/06/19 05:30:24;;;;;;;5.10;1.10;;;;;;;21.60;63.67;99916.89;107185;1271;22568;-78
2022/06/19 05:32:55;;;;;;;4.80;1.20;;;;;;;21.72;63.47;99915.66;107286;1271;24653;-78
2022/06/19 05:35:26;;;;;;;3.60;1.20;;;;;;;21.85;63.30;99914.08;107150;1271;26525;-78
2022/06/19 05:38:00;;;;;;;6.30;1.30;;;;;;;21.99;63.18;99911.23;107216;1271;22535;-78
2022/06/19 05:40:33;;;;;;;9.40;1.30;;;;;;;22.14;62.76;99916.25;107178;1270;22740;-77
2022/06/19 05:43:05;;;;;;;3.50;1.00;;;;;;;22.28;62.29;99918.18;107134;1268;23841;-78
2022/06/19 05:45:38;;;;;;;3.30;0.80;;;;;;;22.43;61.90;99918.75;107160;1271;22622;-79
2022/06/19 05:48:10;;;;;;;6.80;1.10;;;;;;;22.58;61.69;99916.06;107088;1271;22681;-79
2022/06/19 05:50:41;;;;;;;3.60;1.10;;;;;;;22.74;61.31;99915.91;107073;1271;26937;-78
2022/06/19 05:53:13;;;;;;;6.00;1.10;;;;;;;22.89;60.93;99919.44;107025;1271;22711;-78
2022/06/19 05:55:44;;;;;;;7.40;1.20;;;;;;;23.03;60.62;99915.05;107198;1271;22585;-78
2022/06/19 05:58:15;;;;;;;3.10;1.00;;;;;;;23.16;60.08;99913.59;107142;1271;22677;-78
2022/06/19 06:00:47;;;;;;;6.60;1.00;;;;;;;23.31;59.76;99914.32;107148;1270;22576;-80
2022/06/19 06:03:20;;;;;;;4.50;1.00;;;;;;;23.43;59.44;99907.45;107250;1271;22850;-79
2022/06/19 06:05:52;;;;;;;6.70;1.20;;;;;;;23.56;59.02;99908.03;107687;1271;24180;-79
2022/06/19 06:08:23;;;;;;;3.20;1.00;;;;;;;23.69;58.83;99911.06;107658;1269;22817;-80
2022/06/19 06:10:54;;;;;;;4.80;1.00;;;;;;;23.81;58.60;99910.63;107749;1271;22486;-79
2022/06/19 06:13:29;;;;;;;3.90;1.00;;;;;;;23.95;58.37;99906.08;107705;1270;22537;-79
2022/06/19 06:16:02;;;;;;;5.50;0.90;;;;;;;24.10;57.97;99905.33;107646;1271;25372;-79
2022/06/19 06:18:34;;;;;;;8.20;1.00;;;;;;;24.24;57.69;99900.91;107733;1271;22591;-79
2022/06/19 06:21:07;;;;;;;5.30;1.10;;;;;;;24.39;57.28;99895.36;107588;1271;22831;-79
2022/06/19 06:23:39;;;;;;;3.70;0.90;;;;;;;24.52;56.93;99890.21;107640;1269;22561;-78
2022/06/19 06:26:15;;;;;;;5.50;1.00;;;;;;;24.64;56.58;99888.58;107640;1271;22614;-78
2022/06/19 06:28:48;;;;;;;4.00;0.90;;;;;;;24.77;56.46;99882.69;107546;1270;22556;-78
2022/06/19 06:31:20;;;;;;;4.10;0.80;;;;;;;24.92;56.14;99880.36;107296;1271;24022;-79
2022/06/19 06:33:51;;;;;;;4.70;0.80;;;;;;;25.06;55.39;99878.04;107204;1271;22552;-78
2022/06/19 06:36:25;;;;;;;5.30;0.70;;;;;;;25.21;54.55;99877.85;107259;1271;23881;-79
2022/06/19 06:38:57;;;;;;;7.20;0.90;;;;;;;25.36;53.70;99877.39;107318;1271;22563;-78
2022/06/19 06:41:28;;;;;;;8.60;0.80;;;;;;;25.50;52.67;99882.75;107052;1271;24245;-79
2022/06/19 06:44:00;;;;;;;4.80;0.70;;;;;;;25.66;51.82;99883.15;107105;1270;22636;-77
2022/06/19 06:46:31;;;;;;;4.40;0.60;;;;;;;25.81;50.87;99882.77;106989;1271;22554;-80
2022/06/19 06:49:04;;;;;;;6.00;0.90;;;;;;;25.91;50.35;99887.88;107224;1270;25930;-78
2022/06/19 06:51:36;;;;;;;5.20;0.80;;;;;;;26.03;49.65;99886.36;107307;1271;25444;-78
2022/06/19 06:54:08;;;;;;;3.70;0.80;;;;;;;26.15;49.59;99886.05;107287;1271;22480;-78
2022/06/19 06:56:39;;;;;;;4.90;0.80;;;;;;;26.24;49.24;99889.81;107223;1270;22562;-79
2022/06/19 06:59:14;;;;;;;5.70;0.90;;;;;;;26.34;48.19;99888.61;107198;1271;22597;-79
2022/06/19 07:01:46;;;;;;;8.00;0.70;;;;;;;26.48;48.05;99887.20;107226;1270;22566;-77
2022/06/19 07:04:17;;;;;;;4.30;0.70;;;;;;;26.61;47.94;99890.91;107157;1271;24260;-78
2022/06/19 07:06:49;;;;;;;2.90;0.70;;;;;;;26.73;47.48;99884.99;107149;1271;22523;-78
2022/06/19 07:09:22;;;;;;;4.80;0.70;;;;;;;26.84;46.80;99877.95;106987;1271;22536;-79
2022/06/19 07:11:55;;;;;;;6.00;0.90;;;;;;;26.94;46.40;99873.97;107241;1270;22550;-78
2022/06/19 07:14:27;;;;;;;7.20;0.60;;;;;;;27.03;46.34;99871.23;107174;1270;22689;-78
2022/06/19 07:16:58;;;;;;;6.30;1.10;;;;;;;27.11;45.95;99868.84;107240;1271;24274;-78
2022/06/19 07:19:30;;;;;;;4.50;0.80;;;;;;;27.21;45.65;99864.59;107069;1271;22567;-77
2022/06/19 07:22:01;;;;;;;3.70;0.60;;;;;;;27.33;45.42;99863.11;106919;1270;23084;-76
2022/06/19 07:24:32;;;;;;;8.10;0.90;;;;;;;27.40;44.34;99861.09;106976;1271;23270;-77
2022/06/19 07:27:03;;;;;;;4.00;0.70;;;;;;;27.46;44.02;99859.57;106841;1270;27063;-77
2022/06/19 07:29:35;;;;;;;6.60;0.70;;;;;;;27.56;43.74;99859.02;102809;1271;5503595;-76
2022/06/19 07:32:09;;;;;;;3.90;0.70;;;;;;;27.66;43.35;99850.98;107333;1270;22565;-75
2022/06/19 07:34:43;;;;;;;6.70;0.70;;;;;;;27.74;42.64;99847.36;106915;1270;24241;-76
2022/06/19 07:37:16;;;;;;;3.30;0.60;;;;;;;27.81;42.45;99844.62;107105;1270;22612;-76
2022/06/19 07:39:47;;;;;;;6.30;1.00;;;;;;;27.89;42.43;99841.02;106969;1269;22562;-75
2022/06/19 07:42:18;;;;;;;4.80;0.60;;;;;;;27.99;42.25;99841.18;107017;1270;24239;-75
2022/06/19 07:44:49;;;;;;;3.40;0.90;;;;;;;28.10;42.02;99845.94;106850;1270;25309;-76
2022/06/19 07:50:13;;;;;;;3.20;0.60;;;;;;;28.33;41.82;99841.20;106901;1271;25338;-74
2022/06/19 07:52:47;;;;;;;5.50;0.80;;;;;;;28.43;41.22;99840.48;106766;1270;22587;-75
2022/06/19 07:55:21;;;;;;;6.00;0.80;;;;;;;28.52;41.07;99838.11;107049;1270;24217;-77
2022/06/19 07:57:53;;;;;;;5.50;0.80;;;;;;;28.60;40.50;99835.64;107060;1271;24323;-76
2022/06/19 08:00:33;;;;;;;7.00;0.70;;;;;;;28.69;40.52;99832.06;106947;1271;24333;-78
2022/06/19 08:03:05;;;;;;;4.60;0.60;;;;;;;28.81;40.49;99821.11;106920;1271;25255;-76
2022/06/19 08:05:38;;;;;;;6.10;0.70;;;;;;;28.92;40.16;99818.05;107029;1271;22526;-77
2022/06/19 08:08:15;;;;;;;6.80;0.70;;;;;;;29.00;40.05;99814.59;107026;1270;24167;-76
2022/06/19 08:10:50;;;;;;;6.00;0.90;;;;;;;29.06;39.83;99815.58;107015;1270;22675;-77
2022/06/19 08:13:23;;;;;;;7.30;0.90;;;;;;;29.16;39.88;99813.79;106784;1270;22534;-75
2022/06/19 08:15:56;;;;;;;8.10;0.80;;;;;;;29.24;39.35;99813.33;106855;1271;23372;-76
2022/06/19 08:18:28;;;;;;;4.00;0.70;;;;;;;29.31;39.21;99817.66;106829;1271;22540;-76
2022/06/19 08:21:00;;;;;;;9.90;0.80;;;;;;;29.37;38.91;99815.37;106838;1271;22544;-76
2022/06/19 08:23:32;;;;;;;4.70;0.70;;;;;;;29.46;38.78;99820.69;106960;1271;22542;-77
2022/06/19 08:26:04;;;;;;;3.50;0.50;;;;;;;29.55;38.20;99823.26;106909;1270;24265;-77
2022/06/19 08:28:41;;;;;;;5.70;0.80;;;;;;;29.62;37.78;99826.27;106864;1271;24229;-75
2022/06/19 08:31:12;;;;;;;7.00;1.20;;;;;;;29.66;37.78;99820.95;106756;1270;22557;-77
2022/06/19 08:33:43;;;;;;;4.60;0.50;;;;;;;29.68;36.91;99819.75;106913;1271;23352;-75
2022/06/19 08:36:17;;;;;;;4.20;0.80;;;;;;;29.70;37.02;99818.30;106755;1271;25305;-75
2022/06/19 08:38:52;;;;;;;2.30;0.60;;;;;;;29.75;36.90;99819.66;106775;1271;22583;-74
2022/06/19 08:41:39;;;;;;;4.60;0.70;;;;;;;29.81;36.79;99813.29;106802;1271;22546;-76
2022/06/19 08:44:26;;;;;;;7.20;1.30;;;;;;;29.86;36.22;99814.89;106900;1271;22616;-76
2022/06/19 08:47:13;;;;;;;3.70;0.60;;;;;;;29.91;36.62;99813.59;106700;1270;25373;-75
2022/06/19 08:49:58;;;;;;;7.40;0.80;;;;;;;30.01;37.05;99815.39;106736;1268;24352;-75
2022/06/19 08:52:41;;;;;;;4.20;0.80;;;;;;;30.12;36.32;99812.46;106756;1271;22547;-75
2022/06/19 08:55:23;;;;;;;4.60;0.60;;;;;;;30.18;35.98;99805.65;106921;1270;24272;-76
2022/06/19 08:58:05;;;;;;;7.40;0.80;;;;;;;30.22;35.58;99807.75;106809;1270;25255;-76
2022/06/19 09:00:45;;;;;;;4.50;0.80;;;;;;;30.27;35.74;99804.89;106801;1271;22605;-75
2022/06/19 09:03:24;;;;;;;3.30;0.60;;;;;;;30.34;35.61;99801.30;106758;1270;23932;-76
2022/06/19 09:06:07;;;;;;;3.80;0.60;;;;;;;30.41;35.71;99791.77;106863;1271;24228;-75
2022/06/19 09:09:03;;;;;;;2.60;0.70;;;;;;;30.49;35.46;99793.55;106838;1271;22528;-76
2022/06/19 09:12:04;;;;;;;3.90;0.60;;;;;;;30.58;35.17;99799.27;106338;1276;22545;-76
2022/06/19 09:14:46;;;;;;;6.90;0.50;;;;;;;30.65;34.49;99804.46;105441;1284;24264;-76
2022/06/19 09:17:27;;;;;;;8.90;0.80;;;;;;;30.64;33.96;99799.52;105713;1282;22587;-76
2022/06/19 09:20:09;;;;;;;5.90;1.20;;;;;;;30.63;33.74;99794.83;105879;1281;24466;-76
2022/06/19 09:23:02;;;;;;;7.80;0.70;;;;;;;30.66;33.90;99794.84;106422;1281;22549;-78
2022/06/19 09:25:46;;;;;;;5.20;0.50;;;;;;;30.73;33.64;99795.55;105991;1281;24676;-75
2022/06/19 09:28:25;;;;;;;4.70;0.50;;;;;;;30.75;33.12;99795.69;106202;1281;24070;-76
2022/06/19 09:31:05;;;;;;;6.60;0.70;;;;;;;30.77;33.08;99794.10;105912;1281;25225;-75
2022/06/19 09:33:44;;;;;;;4.30;0.60;;;;;;;30.78;32.97;99793.12;105763;1281;22651;-76
2022/06/19 09:36:24;;;;;;;5.50;0.50;;;;;;;30.85;32.99;99788.92;105917;1281;23294;-76
2022/06/19 09:39:01;;;;;;;6.50;0.70;;;;;;;30.94;32.62;99779.65;105961;1281;25380;-75
2022/06/19 09:41:47;;;;;;;2.70;0.60;;;;;;;30.94;32.25;99777.08;105831;1281;22590;-76
2022/06/19 09:44:27;;;;;;;6.30;0.50;;;;;;;30.99;32.68;99773.91;105777;1281;22638;-76
2022/06/19 09:47:00;;;;;;;;;;;;;;;31.08;32.80;99774.30;105882;1281;25367;-76
2022/06/19 09:49:37;;;;;;;3.30;0.40;;;;;;;31.18;33.02;99768.90;106018;1276;27034;-76
2022/06/19 09:52:14;;;;;;;4.20;0.70;;;;;;;31.24;32.31;99774.58;106249;1271;22529;-76
2022/06/19 09:54:51;;;;;;;3.60;0.50;;;;;;;31.24;32.07;99773.28;106792;1271;22536;-77
2022/06/19 09:57:28;;;;;;;5.70;0.80;;;;;;;31.24;32.47;99764.08;106653;1271;22626;-77
2022/06/19 10:00:06;;;;;;;6.50;0.70;;;;;;;31.27;32.44;99758.46;106765;1271;25379;-76
2022/06/19 10:02:47;;;;;;;3.90;0.50;;;;;;;31.30;32.30;99761.50;106834;1271;25373;-78
2022/06/19 10:05:29;;;;;;;7.20;0.60;;;;;;;31.31;32.25;99755.48;106882;1271;22543;-78
2022/06/19 10:08:07;;;;;;;4.50;0.50;;;;;;;31.31;32.31;99756.10;106826;1271;23050;-76
2022/06/19 10:10:46;;;;;;;2.30;0.50;;;;;;;31.34;32.34;99747.60;107016;1271;22531;-78
2022/06/19 10:13:25;;;;;;;6.80;0.60;;;;;;;31.37;32.12;99738.98;107145;1271;24312;-78
2022/06/19 10:15:59;;;;;;;5.80;0.60;;;;;;;31.40;32.26;99742.77;106995;1270;22772;-77
2022/06/19 10:18:35;;;;;;;4.00;0.60;;;;;;;31.47;32.35;99740.88;107015;1271;23863;-76
2022/06/19 10:21:11;;;;;;;5.00;0.60;;;;;;;31.49;31.99;99741.55;107017;1271;22663;-77
2022/06/19 10:23:58;;;;;;;2.60;0.60;;;;;;;31.50;32.21;99741.16;107033;1270;22586;-76
2022/06/19 10:26:42;;;;;;;3.60;0.80;;;;;;;31.54;32.14;99732.02;107056;1271;26097;-75
2022/06/19 10:29:31;;;;;;;4.30;0.70;;;;;;;31.60;32.11;99727.98;106989;1270;22495;-78
2022/06/19 10:32:18;;;;;;;6.50;1.30;;;;;;;31.67;32.38;99724.45;106853;1270;22702;-78
2022/06/19 10:35:01;;;;;;;5.50;0.80;;;;;;;31.74;32.47;99723.71;106908;1270;23710;-79
2022/06/19 10:37:39;;;;;;;4.70;0.60;;;;;;;31.81;32.63;99720.20;106734;1270;22597;-78
2022/06/19 10:40:24;;;;;;;8.30;1.00;;;;;;;31.88;32.56;99714.95;107006;1271;26491;-77
2022/06/19 10:43:06;;;;;;;4.80;0.50;;;;;;;31.95;32.13;99712.85;106779;1270;25956;-77
2022/06/19 10:45:43;;;;;;;5.30;0.80;;;;;;;31.97;32.22;99703.56;106793;1271;22551;-78
2022/06/19 10:48:27;;;;;;;2.00;0.50;;;;;;;31.98;31.90;99704.63;107033;1270;24214;-78
2022/06/19 10:51:22;;;;;;;2.90;0.50;;;;;;;32.01;31.85;99701.44;106742;1270;22628;-76
2022/06/19 10:54:07;;;;;;;4.80;0.70;;;;;;;32.03;32.07;99699.84;106930;1270;24230;-78
2022/06/19 10:56:52;;;;;;;4.40;0.90;;;;;;;32.08;31.96;99696.05;106963;1270;22552;-78
2022/06/19 10:59:23;;;;;;;8.10;0.60;;;;;;;32.14;31.96;99690.15;106982;1270;22756;-78
2022/06/19 11:05:03;;;;;;;6.30;0.70;;;;;;;32.22;31.93;99683.34;106511;1276;22556;-79
2022/06/19 11:07:34;;;;;;;5.60;0.70;;;;;;;32.27;31.83;99681.02;106656;1276;22541;-79
2022/06/19 11:10:12;;;;;;;5.60;0.70;;;;;;;32.31;31.71;99683.55;107083;1274;24364;-78
2022/06/19 11:12:46;;;;;;;5.10;0.70;;;;;;;32.36;31.90;99678.72;106628;1275;23228;-78
2022/06/19 11:15:31;;;;;;;6.80;0.90;;;;;;;32.42;31.45;99674.83;106939;1276;22557;-78
2022/06/19 11:18:17;;;;;;;3.20;0.60;;;;;;;32.45;31.19;99676.27;106401;1276;22558;-76
2022/06/19 11:21:03;;;;;;;3.40;0.60;;;;;;;32.50;30.84;99667.59;106325;1276;23194;-79
2022/06/19 11:23:38;;;;;;;6.70;1.00;;;;;;;32.53;30.93;99671.39;106429;1276;22641;-78
2022/06/19 11:26:14;;;;;;;6.80;0.70;;;;;;;32.56;30.67;99663.84;106311;1276;22525;-77
2022/06/19 11:28:52;;;;;;;6.50;0.90;;;;;;;32.60;30.59;99656.82;106255;1276;23929;-76
2022/06/19 11:31:26;;;;;;;6.90;1.80;;;;;;;32.62;30.40;99648.13;106294;1276;22551;-77
2022/06/19 11:34:01;;;;;;;5.60;0.90;;;;;;;32.62;30.38;99638.58;106415;1276;24058;-76
2022/06/19 11:36:39;;;;;;;7.20;0.90;;;;;;;32.63;30.43;99631.25;106324;1276;24287;-76
2022/06/19 11:39:33;;;;;;;6.70;0.70;;;;;;;32.64;30.12;99633.95;106366;1276;22540;-76
2022/06/19 11:42:33;;;;;;;6.80;0.90;;;;;;;32.71;30.20;99629.73;106440;1271;25492;-76
2022/06/19 11:45:21;;;;;;;7.80;0.80;;;;;;;32.75;30.08;99628.63;106860;1268;25373;-77
2022/06/19 11:48:03;;;;;;;6.70;0.60;;;;;;;32.82;30.12;99616.96;106850;1270;22518;-76
2022/06/19 11:50:54;;;;;;;7.30;0.70;;;;;;;32.89;29.92;99618.89;106679;1270;27289;-77
2022/06/19 11:53:28;;;;;;;3.30;0.50;;;;;;;32.91;29.59;99619.70;106670;1270;23844;-77
2022/06/19 11:56:22;;;;;;;5.30;0.70;;;;;;;32.93;29.78;99621.67;107125;1271;22545;-77
2022/06/19 11:58:59;;;;;;;6.10;1.00;;;;;;;32.94;29.80;99616.98;106703;1271;22544;-76
2022/06/19 12:01:42;;;;;;;4.40;0.80;;;;;;;32.99;29.90;99616.34;106713;1270;23104;-76
2022/06/19 12:04:27;;;;;;;7.70;0.90;;;;;;;33.03;29.82;99611.23;106939;1270;24337;-77
2022/06/19 12:07:02;;;;;;;5.90;0.60;;;;;;;33.08;30.08;99604.77;106784;1268;23344;-76